createdAt,value
2018-03-18T00:01:05.002Z,13.90
2018-03-18T00:02:36.818Z,14.40
2018-03-18T00:04:08.634Z,18.20
2018-03-18T00:05:40.452Z,14.90
2018-03-18T00:07:12.269Z,19.40
2018-03-18T00:08:44.085Z,16.10
2018-03-18T00:10:15.904Z,19.60
2018-03-18T00:11:47.721Z,17.60
2018-03-18T00:13:19.644Z,18.70
2018-03-18T00:14:51.355Z,20.80
2018-03-18T00:16:23.172Z,21.10
2018-03-18T00:17:54.989Z,19.00
2018-03-18T00:19:26.805Z,19.10
2018-03-18T00:20:58.622Z,17.30
2018-03-18T00:22:30.440Z,21.50
2018-03-18T00:24:02.256Z,23.60
2018-03-18T00:25:34.174Z,24.10
2018-03-18T00:27:05.890Z,30.30
2018-03-18T00:28:37.707Z,24.50
2018-03-18T00:30:09.525Z,23.40
2018-03-18T00:31:41.441Z,26.20
2018-03-18T00:33:13.160Z,21.90
2018-03-18T00:34:44.975Z,24.10
2018-03-18T00:36:16.792Z,27.10
2018-03-18T00:37:48.612Z,24.00
2018-03-18T00:39:20.426Z,24.40
2018-03-18T00:40:52.243Z,22.70
2018-03-18T00:42:24.060Z,23.90
2018-03-18T00:43:55.877Z,27.80
2018-03-18T00:45:27.703Z,25.60
2018-03-18T00:46:59.511Z,26.20
2018-03-18T00:48:31.329Z,24.80
2018-03-18T00:50:03.497Z,28.00
2018-03-18T00:51:34.962Z,26.50
2018-03-18T00:53:06.778Z,24.10
2018-03-18T00:54:38.594Z,31.30
2018-03-18T00:56:10.561Z,33.60
2018-03-18T00:57:42.234Z,29.50
2018-03-18T00:59:14.047Z,31.00
2018-03-18T01:00:45.862Z,24.00
2018-03-18T01:02:17.777Z,23.40
2018-03-18T01:03:49.494Z,29.60
2018-03-18T01:05:21.312Z,24.60
2018-03-18T01:06:53.130Z,25.60
2018-03-18T01:08:25.044Z,25.30
2018-03-18T01:09:56.759Z,20.70
2018-03-18T01:11:28.574Z,26.30
2018-03-18T01:13:00.391Z,18.50
2018-03-18T01:14:32.358Z,13.60
2018-03-18T01:16:04.023Z,14.80
2018-03-18T01:17:35.839Z,14.10
2018-03-18T01:19:07.656Z,14.20
2018-03-18T01:20:39.722Z,15.30
2018-03-18T01:22:11.293Z,11.70
2018-03-18T01:23:43.104Z,12.30
2018-03-18T01:25:14.925Z,13.30
2018-03-18T01:26:46.836Z,11.90
2018-03-18T01:28:18.551Z,12.20
2018-03-18T01:29:50.367Z,11.40
2018-03-18T01:31:22.182Z,9.40
2018-03-18T01:32:53.999Z,9.60
2018-03-18T01:34:25.813Z,10.70
2018-03-18T01:35:57.630Z,14.10
2018-03-18T01:37:29.447Z,10.90
2018-03-18T01:39:01.264Z,10.60
2018-03-18T01:40:33.077Z,9.50
2018-03-18T01:42:04.897Z,10.50
2018-03-18T01:43:36.710Z,10.10
2018-03-18T01:45:08.624Z,10.00
2018-03-18T01:46:40.340Z,12.40
2018-03-18T01:48:12.155Z,11.40
2018-03-18T01:49:43.972Z,11.50
2018-03-18T01:51:16.094Z,10.60
2018-03-18T01:52:47.603Z,14.20
2018-03-18T01:54:19.420Z,16.60
2018-03-18T01:55:51.236Z,14.00
2018-03-18T01:57:23.050Z,14.50
2018-03-18T01:58:54.866Z,12.60
2018-03-18T02:00:26.687Z,13.00
2018-03-18T02:01:58.500Z,15.40
2018-03-18T02:03:30.413Z,12.10
2018-03-18T02:05:02.129Z,13.60
2018-03-18T02:06:33.945Z,16.30
2018-03-18T02:08:05.759Z,13.70
2018-03-18T02:09:37.725Z,13.10
2018-03-18T02:11:09.390Z,19.20
2018-03-18T02:12:41.206Z,11.70
2018-03-18T02:14:13.023Z,16.40
2018-03-18T02:15:44.838Z,12.80
2018-03-18T02:17:16.654Z,14.50
2018-03-18T02:18:48.470Z,14.90
2018-03-18T02:20:20.285Z,15.30
2018-03-18T02:21:52.451Z,19.90
2018-03-18T02:23:23.922Z,16.70
2018-03-18T02:24:55.733Z,17.70
2018-03-18T02:26:27.548Z,17.80
2018-03-18T02:27:59.514Z,16.70
2018-03-18T02:29:31.190Z,14.20
2018-03-18T02:31:02.996Z,14.80
2018-03-18T02:32:34.811Z,18.40
2018-03-18T02:34:06.627Z,18.40
2018-03-18T02:35:38.442Z,13.80
2018-03-18T02:37:10.259Z,20.20
2018-03-18T02:38:42.074Z,17.10
2018-03-18T02:40:13.992Z,20.00
2018-03-18T02:41:45.711Z,24.20
2018-03-18T02:43:17.524Z,22.60
2018-03-18T02:44:49.339Z,25.70
2018-03-18T02:46:21.154Z,27.70
2018-03-18T02:47:52.977Z,19.70
2018-03-18T02:49:24.789Z,22.40
2018-03-18T02:50:56.602Z,21.70
2018-03-18T02:52:28.669Z,22.80
2018-03-18T02:54:00.235Z,19.60
2018-03-18T02:55:32.049Z,23.80
2018-03-18T02:57:03.867Z,21.20
2018-03-18T02:58:35.881Z,23.70
2018-03-18T03:00:07.499Z,24.50
2018-03-18T03:01:39.320Z,19.30
2018-03-18T03:03:11.131Z,22.70
2018-03-18T03:04:42.947Z,22.60
2018-03-18T03:06:14.760Z,30.90
2018-03-18T03:07:46.576Z,25.40
2018-03-18T03:09:18.391Z,26.10
2018-03-18T03:10:50.357Z,26.00
2018-03-18T03:12:22.022Z,25.30
2018-03-18T03:13:53.839Z,33.30
2018-03-18T03:15:25.664Z,28.70
2018-03-18T03:16:57.568Z,29.40
2018-03-18T03:18:29.285Z,28.30
2018-03-18T03:20:01.099Z,31.60
2018-03-18T03:21:32.915Z,30.50
2018-03-18T03:23:04.980Z,33.90
2018-03-18T03:24:36.546Z,27.10
2018-03-18T03:26:08.361Z,32.30
2018-03-18T03:27:40.178Z,34.60
2018-03-18T03:29:12.141Z,32.80
2018-03-18T03:30:43.812Z,34.00
2018-03-18T03:32:15.625Z,32.90
2018-03-18T03:33:47.438Z,35.90
2018-03-18T03:35:19.454Z,35.40
2018-03-18T03:36:51.070Z,34.70
2018-03-18T03:38:22.885Z,37.00
2018-03-18T03:39:54.700Z,37.20
2018-03-18T03:41:26.517Z,31.60
2018-03-18T03:42:58.331Z,28.20
2018-03-18T03:44:30.147Z,31.50
2018-03-18T03:46:01.965Z,29.80
2018-03-18T03:47:33.778Z,30.20
2018-03-18T03:49:05.594Z,29.00
2018-03-18T03:50:37.408Z,28.90
2018-03-18T03:52:09.226Z,28.90
2018-03-18T03:53:41.390Z,26.50
2018-03-18T03:55:12.855Z,26.00
2018-03-18T03:56:44.676Z,25.90
2018-03-18T03:58:16.487Z,25.00
2018-03-18T03:59:48.402Z,25.50
2018-03-18T04:01:20.118Z,25.40
2018-03-18T04:02:51.932Z,26.60
2018-03-18T04:04:23.749Z,27.60
2018-03-18T04:05:55.564Z,26.70
2018-03-18T04:07:27.381Z,25.70
2018-03-18T04:08:59.195Z,30.80
2018-03-18T04:10:31.010Z,25.60
2018-03-18T04:12:03.177Z,27.40
2018-03-18T04:13:34.642Z,33.30
2018-03-18T04:15:06.458Z,32.10
2018-03-18T04:16:38.272Z,31.20
2018-03-18T04:18:10.090Z,30.40
2018-03-18T04:19:41.908Z,25.50
2018-03-18T04:21:13.720Z,27.30
2018-03-18T04:22:45.535Z,32.50
2018-03-18T04:24:17.602Z,30.10
2018-03-18T04:25:49.170Z,28.90
2018-03-18T04:27:20.982Z,27.60
2018-03-18T04:28:52.798Z,28.10
2018-03-18T04:30:24.864Z,34.40
2018-03-18T04:31:56.429Z,35.40
2018-03-18T04:33:28.245Z,32.90
2018-03-18T04:35:00.062Z,41.20
2018-03-18T04:36:31.875Z,38.40
2018-03-18T04:38:03.691Z,37.40
2018-03-18T04:39:35.507Z,36.90
2018-03-18T04:41:07.322Z,35.80
2018-03-18T04:42:39.137Z,38.10
2018-03-18T04:44:10.952Z,36.90
2018-03-18T04:45:42.772Z,36.00
2018-03-18T04:47:14.593Z,36.50
2018-03-18T04:48:46.499Z,31.80
2018-03-18T04:50:18.215Z,34.30
2018-03-18T04:51:50.030Z,29.00
2018-03-18T04:53:21.845Z,26.70
2018-03-18T04:54:53.662Z,29.20
2018-03-18T04:56:25.476Z,23.50
2018-03-18T04:57:57.295Z,29.30
2018-03-18T04:59:29.108Z,34.70
2018-03-18T05:01:01.022Z,33.20
2018-03-18T05:02:32.738Z,29.70
2018-03-18T05:04:04.552Z,29.80
2018-03-18T05:05:36.369Z,36.10
2018-03-18T05:07:08.284Z,36.40
2018-03-18T05:08:39.998Z,34.40
2018-03-18T05:10:11.815Z,35.00
2018-03-18T05:11:43.629Z,38.00
2018-03-18T05:13:15.598Z,35.80
2018-03-18T05:14:47.259Z,45.60
2018-03-18T05:16:19.080Z,48.50
2018-03-18T05:17:50.889Z,49.50
2018-03-18T05:19:22.705Z,44.20
2018-03-18T05:20:54.522Z,27.20
2018-03-18T05:22:26.338Z,28.30
2018-03-18T05:23:58.149Z,31.90
2018-03-18T05:25:30.315Z,31.70
2018-03-18T05:27:01.779Z,26.90
2018-03-18T05:28:33.594Z,37.00
2018-03-18T05:30:05.410Z,44.50
2018-03-18T05:31:37.225Z,38.50
2018-03-18T05:33:09.039Z,33.60
2018-03-18T05:34:40.854Z,32.90
2018-03-18T05:36:12.669Z,41.40
2018-03-18T05:37:44.483Z,43.90
2018-03-18T05:39:16.299Z,36.10
2018-03-18T05:40:48.114Z,30.80
2018-03-18T05:42:19.929Z,38.90
2018-03-18T05:43:52.596Z,36.40
2018-03-18T05:45:23.559Z,40.40
2018-03-18T05:46:55.373Z,35.80
2018-03-18T05:48:27.189Z,43.90
2018-03-18T05:49:59.003Z,36.40
2018-03-18T05:51:30.819Z,26.50
2018-03-18T05:53:02.633Z,30.90
2018-03-18T05:54:34.449Z,29.80
2018-03-18T05:56:06.516Z,33.50
2018-03-18T05:57:38.077Z,41.70
2018-03-18T05:59:09.893Z,43.30
2018-03-18T06:00:41.708Z,49.10
2018-03-18T06:02:13.745Z,55.10
2018-03-18T06:03:45.337Z,45.40
2018-03-18T06:05:17.152Z,43.10
2018-03-18T06:06:48.970Z,36.10
2018-03-18T06:08:20.781Z,42.10
2018-03-18T06:09:52.596Z,33.40
2018-03-18T06:11:24.470Z,39.10
2018-03-18T06:12:56.225Z,50.70
2018-03-18T06:14:28.040Z,48.40
2018-03-18T06:15:59.855Z,29.00
2018-03-18T06:17:31.670Z,38.60
2018-03-18T06:19:03.485Z,44.20
2018-03-18T06:20:35.398Z,48.20
2018-03-18T06:22:07.112Z,38.30
2018-03-18T06:23:38.929Z,36.30
2018-03-18T06:25:10.742Z,37.10
2018-03-18T06:26:42.807Z,45.40
2018-03-18T06:28:14.373Z,45.70
2018-03-18T06:29:46.187Z,44.20
2018-03-18T06:31:18.001Z,68.30
2018-03-18T06:32:49.916Z,58.30
2018-03-18T06:34:21.631Z,56.70
2018-03-18T06:35:53.445Z,69.40
2018-03-18T06:37:25.267Z,56.00
2018-03-18T06:38:57.176Z,60.60
2018-03-18T06:40:28.891Z,53.60
2018-03-18T06:42:00.707Z,47.00
2018-03-18T06:43:32.520Z,44.80
2018-03-18T06:45:04.335Z,47.40
2018-03-18T06:46:36.150Z,47.50
2018-03-18T06:48:07.965Z,51.20
2018-03-18T06:49:39.779Z,60.30
2018-03-18T06:51:11.594Z,58.00
2018-03-18T06:52:43.408Z,51.50
2018-03-18T06:54:15.223Z,46.90
2018-03-18T06:55:47.037Z,50.30
2018-03-18T06:57:19.203Z,55.60
2018-03-18T06:58:50.666Z,52.90
2018-03-18T07:00:22.483Z,65.00
2018-03-18T07:01:54.296Z,62.90
2018-03-18T07:03:26.110Z,60.20
2018-03-18T07:04:57.924Z,65.20
2018-03-18T07:06:29.738Z,61.50
2018-03-18T07:08:01.555Z,45.30
2018-03-18T07:09:33.369Z,55.70
2018-03-18T07:11:05.184Z,49.60
2018-03-18T07:12:36.998Z,61.60
2018-03-18T07:14:08.813Z,53.30
2018-03-18T07:15:40.726Z,57.70
2018-03-18T07:17:12.441Z,54.60
2018-03-18T07:18:44.256Z,56.50
2018-03-18T07:20:16.070Z,58.00
2018-03-18T07:21:48.037Z,67.90
2018-03-18T07:23:19.700Z,62.00
2018-03-18T07:24:51.522Z,60.50
2018-03-18T07:26:23.330Z,51.40
2018-03-18T07:27:55.393Z,55.80
2018-03-18T07:29:26.958Z,66.10
2018-03-18T07:30:58.772Z,65.60
2018-03-18T07:32:30.587Z,70.00
2018-03-18T07:34:02.602Z,61.20
2018-03-18T07:35:34.217Z,59.10
2018-03-18T07:37:06.033Z,61.40
2018-03-18T07:38:37.898Z,56.20
2018-03-18T07:40:09.661Z,54.70
2018-03-18T07:41:41.475Z,48.20
2018-03-18T07:43:13.296Z,62.80
2018-03-18T07:44:45.113Z,66.60
2018-03-18T07:46:16.918Z,58.10
2018-03-18T07:47:48.733Z,47.90
2018-03-18T07:49:20.547Z,62.80
2018-03-18T07:50:52.363Z,62.80
2018-03-18T07:52:24.277Z,55.10
2018-03-18T07:53:55.994Z,65.30
2018-03-18T07:55:27.817Z,63.50
2018-03-18T07:56:59.622Z,60.60
2018-03-18T07:58:31.689Z,56.10
2018-03-18T08:00:03.251Z,55.10
2018-03-18T08:01:35.064Z,54.40
2018-03-18T08:03:06.878Z,60.20
2018-03-18T08:04:38.793Z,62.00
2018-03-18T08:06:10.507Z,61.50
2018-03-18T08:07:42.326Z,63.10
2018-03-18T08:09:14.136Z,62.00
2018-03-18T08:10:46.050Z,64.10
2018-03-18T08:12:17.768Z,60.20
2018-03-18T08:13:49.585Z,61.70
2018-03-18T08:15:21.393Z,50.00
2018-03-18T08:16:53.214Z,64.90
2018-03-18T08:18:25.022Z,45.90
2018-03-18T08:19:56.837Z,51.80
2018-03-18T08:21:28.650Z,50.80
2018-03-18T08:23:00.619Z,51.00
2018-03-18T08:24:32.279Z,49.70
2018-03-18T08:26:04.094Z,48.10
2018-03-18T08:27:35.907Z,48.60
2018-03-18T08:29:07.822Z,51.40
2018-03-18T08:30:39.535Z,48.50
2018-03-18T08:32:11.351Z,52.20
2018-03-18T08:33:43.164Z,51.20
2018-03-18T08:35:15.078Z,58.10
2018-03-18T08:36:46.793Z,64.90
2018-03-18T08:38:18.607Z,61.40
2018-03-18T08:39:50.424Z,55.00
2018-03-18T08:41:22.263Z,62.80
2018-03-18T08:42:54.051Z,59.00
2018-03-18T08:44:25.863Z,58.10
2018-03-18T08:45:57.677Z,71.60
2018-03-18T08:47:29.592Z,67.70
2018-03-18T08:49:01.306Z,57.60
2018-03-18T08:50:33.126Z,53.70
2018-03-18T08:52:04.935Z,67.70
2018-03-18T08:53:36.753Z,54.00
2018-03-18T08:55:08.565Z,58.50
2018-03-18T08:56:40.376Z,59.00
2018-03-18T08:58:12.199Z,65.60
2018-03-18T08:59:44.256Z,74.30
2018-03-18T09:01:15.877Z,65.20
2018-03-18T09:02:47.634Z,63.00
2018-03-18T09:04:19.449Z,72.70
2018-03-18T09:05:51.466Z,73.40
2018-03-18T09:07:23.078Z,82.10
2018-03-18T09:08:54.892Z,78.10
2018-03-18T09:10:26.706Z,78.40
2018-03-18T09:11:58.521Z,57.20
2018-03-18T09:13:30.336Z,77.40
2018-03-18T09:15:02.151Z,86.30
2018-03-18T09:16:33.965Z,62.90
2018-03-18T09:18:05.780Z,72.60
2018-03-18T09:19:37.594Z,79.90
2018-03-18T09:21:09.409Z,71.40
2018-03-18T09:22:41.223Z,67.10
2018-03-18T09:24:13.138Z,66.20
2018-03-18T09:25:44.855Z,77.50
2018-03-18T09:27:16.666Z,83.10
2018-03-18T09:28:48.483Z,116.80
2018-03-18T09:30:20.571Z,124.10
2018-03-18T09:33:23.925Z,219.20
2018-03-18T09:34:55.739Z,162.00
2018-03-18T09:36:27.654Z,317.50
2018-03-18T09:37:59.368Z,290.30
2018-03-18T09:39:31.186Z,125.00
2018-03-18T09:41:03.001Z,94.20
2018-03-18T09:42:34.916Z,97.70
2018-03-18T09:44:06.633Z,71.50
2018-03-18T09:45:38.448Z,58.10
2018-03-18T09:47:10.263Z,54.70
2018-03-18T09:48:42.231Z,51.80
2018-03-18T09:50:13.897Z,51.50
2018-03-18T09:51:45.713Z,60.50
2018-03-18T09:53:17.531Z,54.10
2018-03-18T09:54:49.347Z,56.10
2018-03-18T09:56:21.165Z,54.80
2018-03-18T09:57:52.981Z,60.50
2018-03-18T09:59:24.798Z,48.80
2018-03-18T10:00:56.965Z,48.20
2018-03-18T10:02:28.475Z,46.40
2018-03-18T10:04:00.250Z,48.30
2018-03-18T10:05:32.066Z,49.50
2018-03-18T10:07:04.188Z,44.70
2018-03-18T10:08:35.701Z,40.60
2018-03-18T10:10:07.519Z,41.90
2018-03-18T10:11:39.341Z,39.50
2018-03-18T10:13:11.152Z,50.00
2018-03-18T10:14:42.974Z,43.30
2018-03-18T10:16:14.792Z,46.40
2018-03-18T10:17:46.606Z,48.20
2018-03-18T10:19:18.522Z,48.60
2018-03-18T10:20:50.238Z,45.90
2018-03-18T10:22:22.258Z,43.00
2018-03-18T10:23:54.176Z,36.70
2018-03-18T10:25:25.691Z,41.10
2018-03-18T10:26:57.507Z,43.40
2018-03-18T10:28:29.325Z,39.40
2018-03-18T10:30:01.144Z,35.50
2018-03-18T10:31:33.212Z,36.90
2018-03-18T10:33:04.779Z,37.90
2018-03-18T10:34:36.597Z,30.10
2018-03-18T10:36:08.414Z,29.50
2018-03-18T10:37:40.335Z,31.00
2018-03-18T10:39:12.050Z,31.60
2018-03-18T10:40:43.873Z,28.80
2018-03-18T10:42:15.687Z,27.40
2018-03-18T10:43:47.503Z,28.30
2018-03-18T10:45:19.321Z,27.00
2018-03-18T10:46:51.139Z,28.50
2018-03-18T10:48:22.956Z,22.20
2018-03-18T10:49:54.926Z,22.80
2018-03-18T10:51:26.592Z,24.00
2018-03-18T10:52:58.410Z,24.80
2018-03-18T10:54:30.230Z,26.50
2018-03-18T10:56:02.148Z,24.20
2018-03-18T10:57:33.865Z,25.20
2018-03-18T10:59:05.686Z,23.10
2018-03-18T11:00:37.499Z,19.80
2018-03-18T11:02:09.324Z,21.10
2018-03-18T11:03:41.136Z,25.00
2018-03-18T11:05:12.964Z,19.90
2018-03-18T11:06:44.774Z,21.30
2018-03-18T11:08:16.898Z,20.50
2018-03-18T11:09:48.412Z,20.30
2018-03-18T11:11:20.233Z,23.40
2018-03-18T11:12:52.253Z,18.70
2018-03-18T11:14:23.970Z,17.30
2018-03-18T11:15:55.689Z,16.60
2018-03-18T11:17:27.509Z,20.40
2018-03-18T11:18:59.338Z,18.80
2018-03-18T11:20:31.146Z,16.60
2018-03-18T11:22:02.966Z,17.50
2018-03-18T11:23:34.784Z,17.10
2018-03-18T11:25:06.605Z,18.70
2018-03-18T11:26:38.425Z,17.90
2018-03-18T11:28:10.244Z,18.10
2018-03-18T11:29:42.369Z,16.80
2018-03-18T11:31:13.883Z,15.80
2018-03-18T11:32:46.054Z,17.60
2018-03-18T11:34:17.524Z,17.70
2018-03-18T11:35:49.648Z,17.90
2018-03-18T11:37:21.166Z,17.40
2018-03-18T11:38:53.088Z,15.80
2018-03-18T11:40:24.804Z,16.90
2018-03-18T11:41:56.625Z,16.60
2018-03-18T11:43:28.450Z,17.10
2018-03-18T11:46:32.290Z,15.70
2018-03-18T11:48:03.903Z,15.80
2018-03-18T11:49:35.727Z,16.30
2018-03-18T11:51:07.567Z,14.50
2018-03-18T11:52:39.615Z,15.10
2018-03-18T11:54:11.183Z,15.60
2018-03-18T11:55:43.004Z,15.90
2018-03-18T11:57:14.824Z,15.70
2018-03-18T11:58:46.655Z,18.00
2018-03-18T12:00:18.464Z,17.50
2018-03-18T12:01:50.284Z,18.90
2018-03-18T12:03:22.307Z,16.30
2018-03-18T12:04:54.229Z,17.20
2018-03-18T12:06:25.750Z,14.60
2018-03-18T12:07:57.571Z,14.00
2018-03-18T12:09:29.388Z,15.00
2018-03-18T12:11:01.422Z,13.90
2018-03-18T12:12:33.031Z,17.50
2018-03-18T12:14:04.852Z,18.50
2018-03-18T12:15:36.673Z,17.70
2018-03-18T12:18:40.317Z,16.10
2018-03-18T12:21:43.959Z,18.00
2018-03-18T12:23:16.311Z,18.30
2018-03-18T12:24:52.410Z,18.40
2018-03-18T12:26:19.422Z,19.20
2018-03-18T12:27:51.245Z,18.30
2018-03-18T12:29:23.067Z,18.70
2018-03-18T12:30:55.195Z,20.10
2018-03-18T12:32:26.709Z,20.00
2018-03-18T12:33:58.734Z,20.50
2018-03-18T12:35:30.353Z,19.90
2018-03-18T12:38:33.996Z,18.90
2018-03-18T12:40:06.346Z,17.90
2018-03-18T12:41:37.641Z,17.80
2018-03-18T12:43:09.507Z,17.60
2018-03-18T12:44:41.391Z,16.60
2018-03-18T12:46:13.120Z,17.60
2018-03-18T12:50:49.077Z,16.90
2018-03-18T12:52:20.399Z,17.20
2018-03-18T12:53:52.227Z,15.50
2018-03-18T12:55:24.047Z,15.90
2018-03-18T12:56:56.524Z,14.50
2018-03-18T12:58:27.694Z,14.60
2018-03-18T12:59:59.519Z,15.30
2018-03-18T13:01:31.343Z,15.70
2018-03-18T13:03:03.267Z,15.30
2018-03-18T13:04:35.035Z,15.90
2018-03-18T13:06:06.817Z,16.80
2018-03-18T13:07:38.641Z,17.30
2018-03-18T13:09:10.818Z,17.70
2018-03-18T13:12:14.119Z,16.70
2018-03-18T13:13:45.942Z,16.90
2018-03-18T13:15:17.867Z,16.20
2018-03-18T13:18:21.419Z,16.10
2018-03-18T13:19:53.245Z,16.80
2018-03-18T13:21:25.171Z,17.20
2018-03-18T13:22:56.897Z,16.60
2018-03-18T13:24:28.722Z,15.90
2018-03-18T13:26:00.550Z,15.90
2018-03-18T13:27:32.474Z,17.20
2018-03-18T13:30:36.025Z,15.40
2018-03-18T13:32:08.383Z,16.20
2018-03-18T13:33:39.678Z,16.80
2018-03-18T13:35:11.502Z,17.30
2018-03-18T13:36:43.327Z,16.40
2018-03-18T13:38:15.151Z,16.70
2018-03-18T13:39:47.180Z,15.30
2018-03-18T13:41:18.803Z,14.70
2018-03-18T13:42:50.628Z,14.20
2018-03-18T13:44:22.454Z,15.10
2018-03-18T13:45:54.480Z,14.00
2018-03-18T13:48:57.932Z,14.20
2018-03-18T13:50:29.759Z,14.00
2018-03-18T13:52:01.745Z,15.30
2018-03-18T13:53:33.411Z,15.70
2018-03-18T13:55:05.237Z,14.30
2018-03-18T13:56:37.063Z,14.30
2018-03-18T13:58:08.890Z,14.50
2018-03-18T13:59:40.715Z,14.30
2018-03-18T14:01:12.540Z,14.70
2018-03-18T14:02:44.369Z,14.30
2018-03-18T14:05:48.321Z,15.30
2018-03-18T14:07:20.375Z,13.20
2018-03-18T14:08:51.676Z,12.80
2018-03-18T14:10:23.501Z,12.20
2018-03-18T14:11:55.329Z,12.00
2018-03-18T14:13:27.158Z,12.50
2018-03-18T14:14:58.985Z,13.00
2018-03-18T14:16:30.816Z,13.40
2018-03-18T14:18:02.746Z,12.50
2018-03-18T14:21:06.301Z,13.30
2018-03-18T14:22:38.331Z,12.40
2018-03-18T14:24:10.266Z,11.70
2018-03-18T14:25:41.799Z,13.20
2018-03-18T14:27:13.618Z,12.70
2018-03-18T14:28:45.444Z,13.40
2018-03-18T14:30:17.273Z,13.20
2018-03-18T14:31:49.101Z,12.60
2018-03-18T14:33:20.931Z,12.30
2018-03-18T14:34:52.760Z,10.80
2018-03-18T14:36:24.591Z,12.10
2018-03-18T14:37:56.627Z,11.70
2018-03-18T14:39:28.552Z,11.10
2018-03-18T14:41:00.281Z,11.80
2018-03-18T14:42:32.012Z,12.60
2018-03-18T14:44:03.739Z,12.50
2018-03-18T14:45:35.577Z,11.70
2018-03-18T14:47:07.400Z,11.70
2018-03-18T14:48:39.235Z,11.40
2018-03-18T14:50:11.061Z,12.30
2018-03-18T14:51:42.889Z,11.90
2018-03-18T14:53:14.719Z,11.30
2018-03-18T14:54:46.597Z,11.70
2018-03-18T14:56:18.375Z,10.90
2018-03-18T14:59:22.036Z,10.10
2018-03-18T15:00:53.968Z,9.50
2018-03-18T15:02:25.698Z,10.20
2018-03-18T15:03:58.058Z,10.00
2018-03-18T15:05:29.360Z,9.60
2018-03-18T15:07:01.198Z,9.60
2018-03-18T15:10:04.858Z,9.80
2018-03-18T15:11:36.992Z,8.30
2018-03-18T15:13:09.047Z,9.80
2018-03-18T15:14:40.349Z,8.90
2018-03-18T15:17:44.010Z,9.00
2018-03-18T15:19:16.091Z,9.30
2018-03-18T15:20:47.669Z,9.40
2018-03-18T15:22:19.498Z,8.80
2018-03-18T15:23:51.331Z,7.60
2018-03-18T15:25:23.161Z,7.30
2018-03-18T15:26:54.989Z,8.50
2018-03-18T15:28:26.821Z,9.50
2018-03-18T15:29:58.649Z,9.10
2018-03-18T15:31:30.687Z,8.70
2018-03-18T15:33:02.309Z,9.00
2018-03-18T15:34:34.346Z,8.60
2018-03-18T15:36:05.966Z,8.60
2018-03-18T15:37:38.200Z,8.60
2018-03-18T15:39:09.627Z,8.40
2018-03-18T15:40:41.457Z,8.30
2018-03-18T15:42:13.288Z,9.10
2018-03-18T15:43:45.118Z,7.90
2018-03-18T15:45:16.950Z,9.00
2018-03-18T15:46:48.825Z,8.40
2018-03-18T15:48:21.141Z,8.30
2018-03-18T15:49:52.747Z,9.50
2018-03-18T15:51:24.804Z,9.30
2018-03-18T15:52:56.309Z,8.50
2018-03-18T15:54:28.467Z,8.80
2018-03-18T15:56:00.173Z,8.50
2018-03-18T15:57:31.598Z,8.60
2018-03-18T15:59:03.428Z,9.00
2018-03-18T16:00:35.258Z,7.90
2018-03-18T16:02:07.088Z,8.30
2018-03-18T16:03:38.919Z,7.00
2018-03-18T16:05:10.953Z,7.60
2018-03-18T16:08:14.407Z,7.70
2018-03-18T16:11:18.063Z,7.40
2018-03-18T16:12:50.194Z,7.70
2018-03-18T16:14:21.819Z,7.60
2018-03-18T16:15:53.547Z,7.00
2018-03-18T16:17:25.375Z,7.50
2018-03-18T16:18:57.202Z,6.80
2018-03-18T16:20:29.130Z,6.80
2018-03-18T16:22:00.947Z,6.90
2018-03-18T16:25:04.714Z,8.10
2018-03-18T16:26:36.339Z,7.60
2018-03-18T16:29:39.996Z,5.30
2018-03-18T16:31:11.825Z,5.40
2018-03-18T16:32:43.753Z,6.00
2018-03-18T16:34:15.482Z,6.10
2018-03-18T16:35:47.623Z,6.30
2018-03-18T16:37:19.139Z,5.50
2018-03-18T16:40:23.005Z,5.60
2018-03-18T16:41:54.628Z,4.80
2018-03-18T16:43:26.665Z,4.40
2018-03-18T16:44:58.290Z,4.30
2018-03-18T16:46:30.323Z,3.30
2018-03-18T16:48:01.952Z,3.60
2018-03-18T16:49:33.785Z,3.70
2018-03-18T16:51:05.617Z,3.50
2018-03-18T16:52:37.548Z,3.80
2018-03-18T16:54:09.280Z,3.00
2018-03-18T16:55:41.114Z,3.60
2018-03-18T16:57:12.948Z,3.00
2018-03-18T17:00:16.613Z,2.90
2018-03-18T17:01:48.652Z,3.30
2018-03-18T17:03:20.815Z,3.10
2018-03-18T17:04:52.314Z,3.00
2018-03-18T17:06:23.943Z,3.50
2018-03-18T17:07:55.775Z,3.20
2018-03-18T17:09:27.606Z,4.60
2018-03-18T17:10:59.439Z,4.50
2018-03-18T17:15:35.035Z,4.80
2018-03-18T17:17:06.766Z,4.90
2018-03-18T17:18:38.597Z,4.20
2018-03-18T17:20:10.632Z,4.00
2018-03-18T17:21:42.262Z,4.40
2018-03-18T17:23:14.297Z,3.80
2018-03-18T17:24:46.454Z,3.90
2018-03-18T17:26:17.757Z,3.70
2018-03-18T17:27:49.593Z,4.30
2018-03-18T17:29:21.423Z,4.00
2018-03-18T17:30:53.256Z,4.00
2018-03-18T17:32:25.088Z,3.80
2018-03-18T17:33:57.018Z,4.40
2018-03-18T17:35:28.751Z,4.20
2018-03-18T17:37:00.637Z,4.20
2018-03-18T17:40:04.778Z,4.20
2018-03-18T17:41:36.081Z,3.80
2018-03-18T17:43:08.218Z,3.90
2018-03-18T17:49:15.355Z,4.10
2018-03-18T17:50:47.276Z,4.10
2018-03-18T17:52:18.906Z,4.10
2018-03-18T17:53:51.041Z,4.40
2018-03-18T17:55:23.099Z,3.90
2018-03-18T17:56:54.606Z,4.30
2018-03-18T17:58:26.233Z,4.40
2018-03-18T17:59:58.267Z,4.20
2018-03-18T18:01:30.429Z,5.90
2018-03-18T18:03:01.728Z,5.70
2018-03-18T18:04:33.557Z,6.00
2018-03-18T18:06:05.387Z,5.90
2018-03-18T18:07:37.467Z,6.60
2018-03-18T18:09:09.058Z,6.10
2018-03-18T18:10:40.874Z,6.10
2018-03-18T18:12:12.702Z,6.20
2018-03-18T18:15:16.366Z,6.60
2018-03-18T18:18:20.014Z,12.30
2018-03-18T18:21:23.667Z,15.60
2018-03-18T18:22:55.498Z,15.00
2018-03-18T18:24:27.324Z,15.10
2018-03-18T18:25:59.151Z,14.80
2018-03-18T18:27:31.385Z,15.80
2018-03-18T18:29:02.808Z,15.40
2018-03-18T18:30:34.637Z,16.00
2018-03-18T18:32:06.668Z,16.30
2018-03-18T18:33:38.292Z,15.10
2018-03-18T18:35:10.322Z,14.30
2018-03-18T18:36:41.955Z,15.30
2018-03-18T18:38:13.775Z,14.30
2018-03-18T18:41:17.430Z,13.80
2018-03-18T18:42:49.257Z,14.40
2018-03-18T18:44:21.083Z,14.20
2018-03-18T18:45:53.111Z,14.20
2018-03-18T18:47:24.887Z,13.60
2018-03-18T18:48:56.563Z,14.70
2018-03-18T18:50:28.392Z,14.90
2018-03-18T18:52:00.757Z,14.00
2018-03-18T18:53:32.142Z,14.20
2018-03-18T18:55:03.868Z,13.90
2018-03-18T18:56:35.694Z,14.70
2018-03-18T18:58:07.521Z,13.60
2018-03-18T19:01:11.270Z,14.40
2018-03-18T19:02:42.998Z,13.70
2018-03-18T19:04:15.352Z,14.40
2018-03-18T19:05:46.651Z,14.00
2018-03-18T19:07:18.781Z,14.50
2018-03-18T19:08:50.301Z,14.40
2018-03-18T19:10:22.328Z,14.70
2018-03-18T19:11:53.951Z,14.50
2018-03-18T19:13:25.776Z,14.50
2018-03-18T19:14:57.602Z,15.50
2018-03-18T19:16:29.427Z,14.50
2018-03-18T19:21:05.105Z,15.60
2018-03-18T19:22:36.727Z,14.40
2018-03-18T19:24:08.758Z,14.80
2018-03-18T19:25:40.378Z,14.60
2018-03-18T19:27:12.303Z,14.10
2018-03-18T19:28:44.027Z,14.20
2018-03-18T19:30:16.158Z,15.60
2018-03-18T19:31:47.679Z,15.40
2018-03-18T19:33:19.652Z,16.40
2018-03-18T19:34:51.326Z,15.80
2018-03-18T19:36:23.150Z,15.80
2018-03-18T19:37:54.976Z,15.90
2018-03-18T19:39:26.800Z,15.80
2018-03-18T19:42:30.980Z,15.80
2018-03-18T19:44:02.273Z,16.60
2018-03-18T19:45:34.199Z,16.20
2018-03-18T19:47:06.225Z,15.70
2018-03-18T19:48:37.747Z,17.60
2018-03-18T19:50:09.571Z,16.90
2018-03-18T19:51:41.395Z,17.90
2018-03-18T19:53:13.217Z,17.90
2018-03-18T19:54:45.043Z,17.40
2018-03-18T19:56:16.867Z,17.70
2018-03-18T19:57:48.688Z,17.90
2018-03-18T19:59:20.518Z,17.40
2018-03-18T20:00:52.640Z,17.10
2018-03-18T20:03:56.185Z,17.60
2018-03-18T20:05:27.808Z,17.00
2018-03-18T20:06:59.629Z,16.10
2018-03-18T20:08:31.453Z,16.70
2018-03-18T20:10:03.277Z,17.10
2018-03-18T20:11:35.099Z,16.10
2018-03-18T20:13:07.125Z,17.00
2018-03-18T20:14:38.746Z,16.30
2018-03-18T20:16:10.569Z,17.50
2018-03-18T20:17:42.923Z,18.40
2018-03-18T20:20:46.038Z,18.50
2018-03-18T20:22:17.959Z,19.10
2018-03-18T20:23:49.682Z,18.40
2018-03-18T20:25:21.506Z,18.60
2018-03-18T20:26:53.327Z,19.00
2018-03-18T20:28:25.150Z,20.10
2018-03-18T20:29:56.970Z,18.70
2018-03-18T20:31:28.793Z,19.30
2018-03-18T20:33:00.616Z,21.10
2018-03-18T20:34:32.639Z,19.40
2018-03-18T20:36:04.256Z,22.00
2018-03-18T20:37:36.079Z,21.10
2018-03-18T20:39:07.899Z,21.90
2018-03-18T20:40:39.971Z,24.30
2018-03-18T20:42:11.541Z,21.40
2018-03-18T20:43:43.361Z,22.10
2018-03-18T20:45:15.181Z,23.00
2018-03-18T20:46:47.001Z,23.70